Time;durP1;ratioP1;P1;durP2;ratioP2;P2;SDS_P1;SDS_P2;PMS_P1;PMS_P2;Temp;Humidity;BMP_temperature;BMP_pressure;BME280_temperature;BME280_humidity;BME280_pressure;Samples;Min_cycle;Max_cycle;Signal;HPM_P1;HPM_P2
2022/11/09 00:00:40;;;;;;;1.27;1.17;;;;;;;6.27;100.00;100742.13;5113660;28;20035;-75
2022/11/09 00:03:06;;;;;;;1.10;1.00;;;;;;;6.24;100.00;100737.94;5113565;28;20036;-75
2022/11/09 00:05:32;;;;;;;1.10;1.00;;;;;;;6.33;100.00;100747.72;5112338;28;20034;-75
2022/11/09 00:07:57;;;;;;;2.10;1.90;;;;;;;6.27;100.00;100737.69;5113098;28;20364;-75
2022/11/09 00:10:23;;;;;;;1.67;1.10;;;;;;;6.35;100.00;100740.47;5112389;28;20031;-75
2022/11/09 00:12:48;;;;;;;1.53;1.43;;;;;;;6.37;100.00;100738.56;5112746;28;20463;-73
2022/11/09 00:15:14;;;;;;;1.70;1.30;;;;;;;6.38;100.00;100739.38;5113148;28;20461;-73
2022/11/09 00:17:39;;;;;;;1.77;1.37;;;;;;;6.33;100.00;100737.13;5112346;28;20114;-71
2022/11/09 00:20:05;;;;;;;1.30;1.20;;;;;;;6.32;100.00;100743.38;5113532;28;20059;-74
2022/11/09 00:22:30;;;;;;;1.67;1.30;;;;;;;6.28;100.00;100744.63;5113512;28;20035;-74
2022/11/09 00:24:56;;;;;;;1.50;1.40;;;;;;;6.26;100.00;100746.59;5113364;28;20027;-72
2022/11/09 00:27:21;;;;;;;1.23;1.13;;;;;;;6.32;100.00;100746.03;5111690;28;20031;-72
2022/11/09 00:29:47;;;;;;;2.40;2.20;;;;;;;6.31;100.00;100740.88;5113157;28;20574;-75
2022/11/09 00:32:12;;;;;;;1.20;1.10;;;;;;;6.32;100.00;100739.91;5113862;28;20028;-72
2022/11/09 00:34:38;;;;;;;1.37;1.27;;;;;;;6.31;100.00;100744.34;5113155;28;20058;-73
2022/11/09 00:37:04;;;;;;;1.50;1.40;;;;;;;6.28;100.00;100744.63;5113184;28;20122;-73
2022/11/09 00:39:30;;;;;;;1.80;1.30;;;;;;;6.28;100.00;100751.72;5113181;28;20080;-74
2022/11/09 00:41:55;;;;;;;1.87;1.07;;;;;;;6.23;100.00;100754.78;5113071;28;20348;-72
2022/11/09 00:44:21;;;;;;;1.30;1.20;;;;;;;6.22;100.00;100750.47;5113173;28;20382;-73
2022/11/09 00:46:46;;;;;;;1.73;1.37;;;;;;;6.09;100.00;100734.03;5113130;28;20040;-71
2022/11/09 00:49:12;;;;;;;1.53;1.43;;;;;;;6.15;100.00;100752.00;5112940;28;20030;-73
2022/11/09 00:51:37;;;;;;;1.50;1.20;;;;;;;6.04;100.00;100742.31;5113078;28;20019;-74
2022/11/09 00:54:03;;;;;;;1.20;1.10;;;;;;;6.02;100.00;100743.44;5113115;28;20023;-73
2022/11/09 00:56:28;;;;;;;1.93;1.47;;;;;;;6.03;100.00;100747.75;5113179;28;20027;-73
2022/11/09 00:58:54;;;;;;;1.53;1.30;;;;;;;5.96;100.00;100734.25;5113252;28;20055;-75
2022/11/09 01:01:20;;;;;;;1.77;1.20;;;;;;;6.06;100.00;100747.47;5114106;28;20031;-73
2022/11/09 01:03:46;;;;;;;2.53;1.40;;;;;;;6.04;100.00;100752.06;5113046;28;20035;-73
2022/11/09 01:06:20;;;;;;;1.70;1.40;;;;;;;6.00;100.00;100750.66;5111651;28;20030;-74
2022/11/09 01:08:47;;;;;;;1.50;1.40;;;;;;;5.99;100.00;100759.56;5112515;28;20423;-72
2022/11/09 01:11:12;;;;;;;2.13;1.50;;;;;;;5.94;100.00;100762.63;5112349;28;20434;-72
2022/11/09 01:13:38;;;;;;;2.27;1.70;;;;;;;5.95;100.00;100758.16;5112270;28;20066;-73
2022/11/09 01:16:07;;;;;;;2.33;1.87;;;;;;;5.94;100.00;100756.50;5112169;28;20378;-73
2022/11/09 01:18:33;;;;;;;1.92;1.83;;;;;;;5.99;100.00;100765.69;5111449;28;20019;-72
2022/11/09 01:21:00;;;;;;;1.27;1.17;;;;;;;5.89;100.00;100749.81;5112739;28;20359;-75
2022/11/09 01:23:46;;;;;;;1.63;1.53;;;;;;;6.02;100.00;100759.28;5111199;28;20455;-73
2022/11/09 01:26:14;;;;;;;1.90;1.23;;;;;;;6.03;100.00;100766.25;5116203;28;20027;-73
2022/11/09 01:28:40;;;;;;;1.67;1.47;;;;;;;6.06;100.00;100772.13;5117100;28;20024;-72
2022/11/09 01:31:11;;;;;;;1.50;1.40;;;;;;;6.08;100.00;100775.50;5117563;28;20027;-74
2022/11/09 01:33:37;;;;;;;2.93;1.30;;;;;;;6.06;100.00;100760.69;5119385;27;20556;-73
2022/11/09 01:36:11;;;;;;;1.23;1.13;;;;;;;6.06;100.00;100771.28;5120509;28;20109;-72
2022/11/09 01:38:38;;;;;;;1.60;1.43;;;;;;;6.03;100.00;100771.53;5121200;28;20032;-73
2022/11/09 01:41:06;;;;;;;1.43;1.33;;;;;;;5.99;100.00;100770.13;5131187;28;20035;-74
2022/11/09 01:43:33;;;;;;;2.20;1.53;;;;;;;5.95;100.00;100779.31;5128207;28;20055;-73
2022/11/09 01:46:27;;;;;;;2.93;1.57;;;;;;;5.98;100.00;100773.75;5120962;28;20269;-72
2022/11/09 01:48:59;;;;;;;1.90;1.50;;;;;;;5.95;100.00;100768.75;5113666;28;20127;-72
2022/11/09 01:51:28;;;;;;;1.80;1.70;;;;;;;5.99;100.00;100780.72;5117098;28;20035;-73
2022/11/09 01:54:08;;;;;;;1.37;1.27;;;;;;;5.97;100.00;100777.38;5116421;27;20054;-74
2022/11/09 01:56:34;;;;;;;2.57;1.20;;;;;;;5.97;100.00;100785.31;5116855;28;20032;-74
2022/11/09 01:59:06;;;;;;;1.40;1.30;;;;;;;6.01;100.00;100792.84;5116151;28;20027;-74
2022/11/09 02:01:32;;;;;;;2.80;1.43;;;;;;;5.94;100.00;100782.94;5114525;28;20378;-75
2022/11/09 02:04:07;;;;;;;4.30;1.27;;;;;;;5.98;100.00;100789.63;5116376;28;20151;-74
2022/11/09 02:06:34;;;;;;;1.40;1.30;;;;;;;6.03;100.00;100795.34;5115271;28;20432;-74
2022/11/09 02:09:13;;;;;;;1.47;1.30;;;;;;;6.06;100.00;100781.84;5116414;28;20024;-76
2022/11/09 02:11:39;;;;;;;2.30;1.40;;;;;;;6.11;100.00;100784.97;5116346;28;20027;-75
2022/11/09 02:14:06;;;;;;;2.20;1.33;;;;;;;6.17;100.00;100789.72;5116014;28;20023;-74
2022/11/09 02:16:33;;;;;;;1.80;1.30;;;;;;;6.21;100.00;100791.09;5115046;28;20446;-74
2022/11/09 02:19:00;;;;;;;1.50;1.40;;;;;;;6.21;100.00;100785.81;5116398;27;20165;-75
2022/11/09 02:21:28;;;;;;;2.03;1.83;;;;;;;6.09;100.00;100765.75;5115887;28;20114;-75
2022/11/09 02:23:54;;;;;;;1.60;1.50;;;;;;;6.24;100.00;100785.56;5115984;28;20078;-76
2022/11/09 02:26:39;;;;;;;2.87;1.53;;;;;;;6.26;100.00;100788.91;5115745;28;20482;-74
2022/11/09 02:29:08;;;;;;;1.60;1.50;;;;;;;6.24;100.00;100793.47;5116250;28;20028;-75
2022/11/09 02:31:37;;;;;;;1.35;1.25;;;;;;;6.24;100.00;100790.84;5115787;28;20100;-76
2022/11/09 02:34:07;;;;;;;1.40;1.30;;;;;;;6.21;100.00;100796.41;5114545;28;20027;-74
2022/11/09 02:36:33;;;;;;;1.50;1.40;;;;;;;6.02;100.00;100759.28;5115120;28;20114;-76
2022/11/09 02:39:01;;;;;;;1.40;1.07;;;;;;;6.20;100.00;100784.97;5115584;28;20031;-73
2022/11/09 02:41:29;;;;;;;1.23;0.83;;;;;;;6.17;100.00;100779.97;5114244;28;20020;-74
2022/11/09 02:43:56;;;;;;;1.55;1.45;;;;;;;6.19;100.00;100771.91;5115290;28;20058;-75
2022/11/09 02:46:35;;;;;;;1.60;1.50;;;;;;;6.14;100.00;100764.38;5115794;28;20039;-76
2022/11/09 02:49:02;;;;;;;1.50;1.40;;;;;;;6.27;100.00;100782.63;5115056;28;20016;-76
2022/11/09 02:51:27;;;;;;;1.37;1.27;;;;;;;6.29;100.00;100779.84;5114744;28;20039;-75
2022/11/09 02:53:53;;;;;;;1.50;1.40;;;;;;;6.23;100.00;100775.94;5115505;28;20020;-76
2022/11/09 02:56:19;;;;;;;1.20;1.10;;;;;;;6.27;100.00;100782.63;5115477;27;20020;-75
2022/11/09 02:58:44;;;;;;;1.73;1.63;;;;;;;6.29;100.00;100775.41;5114867;28;20459;-72
2022/11/09 03:01:10;;;;;;;1.27;1.17;;;;;;;6.25;100.00;100760.78;5114858;28;20059;-74
2022/11/09 03:03:35;;;;;;;2.40;1.60;;;;;;;6.32;100.00;100766.34;5115199;28;20036;-75
2022/11/09 03:06:01;;;;;;;1.50;1.40;;;;;;;6.35;100.00;100772.22;5115486;28;20039;-76
2022/11/09 03:08:27;;;;;;;1.70;1.60;;;;;;;6.35;100.00;100772.22;5115318;28;20024;-75
2022/11/09 03:10:53;;;;;;;2.10;1.40;;;;;;;6.38;100.00;100771.97;5114811;28;20519;-74
2022/11/09 03:13:18;;;;;;;1.50;1.40;;;;;;;6.45;100.00;100781.03;5114827;28;20439;-74
2022/11/09 03:15:44;;;;;;;2.43;1.60;;;;;;;6.43;100.00;100769.75;5114804;28;20077;-75
2022/11/09 03:18:09;;;;;;;1.73;1.57;;;;;;;6.37;100.00;100765.00;5114391;28;20031;-76
2022/11/09 03:20:35;;;;;;;1.50;1.20;;;;;;;6.35;100.00;100763.44;5114380;28;20032;-75
2022/11/09 03:23:01;;;;;;;1.60;1.50;;;;;;;6.31;100.00;100768.16;5114201;28;20054;-76
2022/11/09 03:25:27;;;;;;;1.50;1.40;;;;;;;6.25;100.00;100758.13;5114370;28;20028;-75
2022/11/09 03:28:00;;;;;;;3.23;1.50;;;;;;;6.33;100.00;100766.22;5114208;28;20031;-74
2022/11/09 03:30:26;;;;;;;1.87;1.77;;;;;;;6.39;100.00;100773.63;5114512;28;20023;-75
2022/11/09 03:32:59;;;;;;;1.83;1.73;;;;;;;6.38;100.00;100763.19;5114411;28;20024;-75
2022/11/09 03:35:25;;;;;;;3.27;2.00;;;;;;;6.38;100.00;100761.38;5114513;28;20475;-76
2022/11/09 03:37:50;;;;;;;2.60;1.90;;;;;;;6.34;100.00;100765.25;5113477;28;20031;-73
2022/11/09 03:40:16;;;;;;;3.90;2.20;;;;;;;6.34;100.00;100767.88;5114059;28;20126;-74
2022/11/09 03:42:46;;;;;;;2.57;2.00;;;;;;;6.38;100.00;100765.84;5114399;28;20122;-75
2022/11/09 03:45:14;;;;;;;2.20;2.00;;;;;;;6.46;100.00;100766.81;5114053;28;20043;-75
2022/11/09 03:47:41;;;;;;;2.65;2.10;;;;;;;6.41;100.00;100763.75;5113250;28;20540;-74
2022/11/09 03:50:07;;;;;;;2.50;2.10;;;;;;;6.42;100.00;100770.72;5113959;28;20085;-76
2022/11/09 03:52:34;;;;;;;3.27;2.53;;;;;;;6.39;100.00;100763.06;5114329;28;20031;-74
2022/11/09 03:54:59;;;;;;;17.83;11.30;;;;;;;6.34;100.00;100759.97;5114179;28;20459;-75
2022/11/09 03:57:25;;;;;;;3.27;2.90;;;;;;;6.39;100.00;100759.56;5114270;28;20020;-75
2022/11/09 03:59:50;;;;;;;2.60;2.40;;;;;;;6.45;100.00;100759.03;5113829;28;20076;-76
2022/11/09 04:02:16;;;;;;;4.57;2.87;;;;;;;6.53;100.00;100769.75;5113024;28;20443;-72
2022/11/09 04:04:41;;;;;;;3.27;2.40;;;;;;;6.51;100.00;100756.66;5113531;28;20119;-71
2022/11/09 04:07:09;;;;;;;2.93;2.20;;;;;;;6.55;100.00;100757.22;5115322;28;20027;-71
2022/11/09 04:09:34;;;;;;;2.70;2.40;;;;;;;6.52;100.00;100750.41;5113930;28;20511;-72
2022/11/09 04:12:00;;;;;;;2.70;2.30;;;;;;;6.55;100.00;100745.81;5113185;28;20060;-70
2022/11/09 04:14:25;;;;;;;4.63;2.50;;;;;;;6.51;100.00;100746.09;5113189;28;20020;-72
2022/11/09 04:16:51;;;;;;;3.77;3.10;;;;;;;6.58;100.00;100756.13;5113309;28;20367;-71
2022/11/09 04:19:16;;;;;;;2.60;2.33;;;;;;;6.59;100.00;100749.84;5111808;28;20047;-72
2022/11/09 04:21:42;;;;;;;4.83;2.90;;;;;;;6.64;100.00;100755.56;5113350;28;20050;-72
2022/11/09 04:24:08;;;;;;;3.30;2.50;;;;;;;6.50;100.00;100731.19;5113104;28;20034;-72
2022/11/09 04:26:33;;;;;;;3.97;2.27;;;;;;;6.71;100.00;100762.00;5111564;28;20528;-72
2022/11/09 04:28:59;;;;;;;4.67;3.80;;;;;;;6.70;100.00;100755.03;5113079;28;20023;-73
2022/11/09 04:31:24;;;;;;;6.70;4.13;;;;;;;6.65;100.00;100755.44;5113239;28;20502;-72
2022/11/09 04:33:50;;;;;;;3.83;3.30;;;;;;;6.62;100.00;100746.91;5112929;27;20046;-74
2022/11/09 04:36:16;;;;;;;2.77;2.50;;;;;;;6.58;100.00;100738.44;5112850;28;20379;-72
2022/11/09 04:38:42;;;;;;;3.47;2.90;;;;;;;6.47;100.00;100723.53;5112899;28;20451;-74
2022/11/09 04:41:07;;;;;;;9.47;4.63;;;;;;;6.38;100.00;100720.88;5112975;28;20055;-73
2022/11/09 04:43:34;;;;;;;4.20;3.53;;;;;;;6.38;100.00;100734.09;5113206;28;20058;-73
2022/11/09 04:46:01;;;;;;;6.47;3.47;;;;;;;6.43;100.00;100732.72;5112800;28;20528;-74
2022/11/09 04:48:45;;;;;;;7.47;4.50;;;;;;;6.50;100.00;100733.00;5112852;28;20036;-75
2022/11/09 04:51:13;;;;;;;6.60;4.50;;;;;;;6.47;100.00;100727.97;5113469;28;20028;-73
2022/11/09 04:53:39;;;;;;;6.72;4.70;;;;;;;6.45;100.00;100730.75;5113162;28;20027;-74
2022/11/09 04:56:06;;;;;;;9.77;5.43;;;;;;;6.50;100.00;100733.00;5112702;28;20114;-74
2022/11/09 04:58:32;;;;;;;6.53;5.50;;;;;;;6.46;100.00;100721.84;5113086;28;20028;-75
2022/11/09 05:01:20;;;;;;;8.77;6.30;;;;;;;6.51;100.00;100732.03;5117482;28;20023;-74
2022/11/09 05:03:46;;;;;;;10.35;6.05;;;;;;;6.44;100.00;100726.44;5105972;27;20467;-75
2022/11/09 05:08:56;;;;;;;7.93;6.23;;;;;;;6.34;100.00;100712.34;5116649;28;20028;-69
2022/11/09 05:11:24;;;;;;;8.43;6.03;;;;;;;6.29;100.00;100701.34;5116695;28;20038;-74
2022/11/09 05:13:52;;;;;;;8.00;6.55;;;;;;;6.35;100.00;100711.38;5117243;28;20062;-73
2022/11/09 05:16:18;;;;;;;7.63;5.70;;;;;;;6.43;100.00;100719.47;5116896;28;20031;-71
2022/11/09 05:18:44;;;;;;;9.17;6.17;;;;;;;6.49;100.00;100715.44;5116565;28;20028;-73
2022/11/09 05:21:09;;;;;;;11.23;7.80;;;;;;;6.49;100.00;100718.09;5116796;28;20031;-73
2022/11/09 05:26:22;;;;;;;7.93;6.20;;;;;;;6.49;100.00;100718.94;5117328;28;20023;-74
2022/11/09 05:28:49;;;;;;;9.70;5.67;;;;;;;6.43;100.00;100711.53;5117218;28;20035;-72
2022/11/09 05:31:15;;;;;;;7.73;6.17;;;;;;;6.36;100.00;100705.13;5116724;28;20024;-74
2022/11/09 05:33:40;;;;;;;7.80;6.37;;;;;;;6.34;100.00;100709.69;5115797;28;20027;-71
2022/11/09 05:36:06;;;;;;;10.67;6.67;;;;;;;6.38;100.00;100708.47;5116362;28;20378;-73
2022/11/09 05:38:32;;;;;;;9.20;6.80;;;;;;;6.35;100.00;100702.59;5117077;28;20031;-71
2022/11/09 05:41:00;;;;;;;11.37;6.63;;;;;;;6.41;100.00;100708.19;5116753;28;20023;-73
2022/11/09 05:43:26;;;;;;;8.88;7.53;;;;;;;6.48;100.00;100714.63;5116239;28;20097;-74
2022/11/09 05:45:55;;;;;;;11.80;8.67;;;;;;;6.44;100.00;100713.22;5116993;28;20035;-75
2022/11/09 05:48:20;;;;;;;10.57;7.63;;;;;;;6.42;100.00;100717.81;5114642;28;20438;-74
2022/11/09 05:50:46;;;;;;;10.40;7.67;;;;;;;6.39;100.00;100720.72;5115698;28;20058;-73
2022/11/09 05:53:11;;;;;;;14.63;8.13;;;;;;;6.36;100.00;100725.44;5115748;28;20032;-73
2022/11/09 05:55:37;;;;;;;10.77;7.93;;;;;;;6.38;100.00;100719.06;5116049;28;20026;-72
2022/11/09 05:58:04;;;;;;;15.07;10.97;;;;;;;6.42;100.00;100724.91;5114652;28;20436;-73
2022/11/09 06:00:30;;;;;;;23.27;13.70;;;;;;;6.38;100.00;100723.53;5117202;28;20080;-71
2022/11/09 06:03:07;;;;;;;19.17;13.23;;;;;;;6.42;100.00;100730.19;5114381;28;20383;-74
2022/11/09 06:05:34;;;;;;;21.30;12.77;;;;;;;6.36;100.00;100723.66;5115463;28;20123;-71
2022/11/09 06:08:06;;;;;;;42.63;20.40;;;;;;;6.41;100.00;100724.06;5116207;28;20351;-74
2022/11/09 06:10:32;;;;;;;34.17;19.17;;;;;;;6.37;100.00;100712.09;5114611;28;20039;-75
2022/11/09 06:12:58;;;;;;;53.53;27.23;;;;;;;6.40;100.00;100717.13;5115465;28;20024;-74
2022/11/09 06:15:28;;;;;;;41.45;21.08;;;;;;;6.40;100.00;100721.56;5115559;28;20451;-72
2022/11/09 06:17:55;;;;;;;38.72;21.10;;;;;;;6.49;100.00;100726.88;5115454;27;20047;-73
2022/11/09 06:20:21;;;;;;;34.90;20.00;;;;;;;6.56;100.00;100726.31;5115990;28;20028;-75
2022/11/09 06:22:53;;;;;;;23.80;13.40;;;;;;;6.59;100.00;100718.09;5116545;28;20114;-73
2022/11/09 06:25:19;;;;;;;17.27;11.23;;;;;;;6.56;100.00;100721.03;5115862;28;20044;-74
2022/11/09 06:27:47;;;;;;;15.00;11.30;;;;;;;6.51;100.00;100716.97;5115596;28;20027;-74
2022/11/09 06:30:18;;;;;;;14.73;10.38;;;;;;;6.44;100.00;100720.31;5115282;28;20023;-74
2022/11/09 06:33:07;;;;;;;14.37;9.67;;;;;;;6.32;100.00;100703.72;5119938;28;20034;-74
2022/11/09 06:35:32;;;;;;;15.20;11.20;;;;;;;6.35;100.00;100719.31;5117476;28;20026;-74
2022/11/09 06:38:01;;;;;;;13.10;9.00;;;;;;;6.39;100.00;100726.03;5116236;28;20126;-74
2022/11/09 06:40:27;;;;;;;16.88;9.57;;;;;;;6.38;100.00;100719.06;5119269;28;20028;-74
2022/11/09 06:42:59;;;;;;;13.03;10.77;;;;;;;6.39;100.00;100715.44;5117974;28;20032;-75
2022/11/09 06:45:28;;;;;;;17.77;12.47;;;;;;;6.34;100.00;100704.41;5118939;28;20451;-74
2022/11/09 06:48:01;;;;;;;20.60;12.63;;;;;;;6.33;100.00;100713.31;5118115;28;20114;-73
2022/11/09 06:50:31;;;;;;;;;;;;;;;6.38;100.00;100712.94;5119581;28;20088;-75
2022/11/09 06:52:58;;;;;;;16.43;10.83;;;;;;;6.29;100.00;100708.44;5115656;28;20018;-74
2022/11/09 06:55:26;;;;;;;15.10;10.67;;;;;;;6.27;100.00;100711.22;5116590;28;20015;-76
2022/11/09 06:57:52;;;;;;;16.00;10.97;;;;;;;6.24;100.00;100700.09;5117501;28;20028;-75
2022/11/09 07:00:18;;;;;;;18.93;11.27;;;;;;;6.24;100.00;100705.38;5116224;27;20557;-76
2022/11/09 07:02:44;;;;;;;15.37;11.60;;;;;;;6.23;100.00;100699.25;5114506;28;20118;-74
2022/11/09 07:05:09;;;;;;;18.20;11.07;;;;;;;6.16;100.00;100692.84;5114280;28;20111;-73
2022/11/09 07:07:35;;;;;;;16.27;11.93;;;;;;;6.18;100.00;100696.19;5116216;28;20126;-75
2022/11/09 07:10:00;;;;;;;16.47;11.50;;;;;;;6.16;100.00;100700.78;5115872;28;20027;-73
2022/11/09 07:12:27;;;;;;;15.70;11.90;;;;;;;6.19;100.00;100689.91;5116069;28;20022;-73
2022/11/09 07:14:56;;;;;;;15.77;11.93;;;;;;;6.23;100.00;100696.59;5116957;28;20035;-73
2022/11/09 07:17:21;;;;;;;17.38;12.07;;;;;;;6.27;100.00;100684.78;5113714;28;20505;-73
2022/11/09 07:19:47;;;;;;;16.37;11.53;;;;;;;6.22;100.00;100664.03;5118890;28;20032;-74
2022/11/09 07:22:12;;;;;;;18.00;11.70;;;;;;;6.38;100.00;100671.44;5114836;28;20513;-74
2022/11/09 07:24:38;;;;;;;15.43;10.63;;;;;;;6.38;100.00;100671.44;5115746;28;20528;-73
2022/11/09 07:27:03;;;;;;;14.60;10.20;;;;;;;6.38;100.00;100671.44;5119007;28;20028;-73
2022/11/09 07:29:29;;;;;;;14.10;10.60;;;;;;;6.37;100.00;100668.94;5114992;28;20023;-73
2022/11/09 07:31:57;;;;;;;15.83;9.63;;;;;;;6.38;100.00;100676.75;5115621;28;20020;-74
2022/11/09 07:34:26;;;;;;;16.58;9.52;;;;;;;6.20;100.00;100630.78;5116335;27;20111;-73
2022/11/09 07:36:53;;;;;;;15.70;8.93;;;;;;;6.41;100.00;100665.88;5116689;28;20507;-74
2022/11/09 07:39:19;;;;;;;10.73;7.57;;;;;;;6.35;100.00;100642.59;5115807;28;20031;-74
2022/11/09 07:41:47;;;;;;;14.60;9.07;;;;;;;6.49;100.00;100663.38;5114563;28;20039;-74
2022/11/09 07:44:17;;;;;;;11.00;8.80;;;;;;;6.49;100.00;100652.78;5113571;28;20367;-74
2022/11/09 07:47:10;;;;;;;22.67;15.67;;;;;;;6.41;100.00;100644.72;5114069;28;20490;-73
2022/11/09 07:49:39;;;;;;;12.15;8.10;;;;;;;6.42;100.00;100649.03;5113304;28;20088;-74
2022/11/09 07:52:05;;;;;;;11.27;8.77;;;;;;;6.38;100.00;100646.81;5114006;28;20062;-75
2022/11/09 07:54:30;;;;;;;13.63;9.10;;;;;;;6.45;100.00;100639.97;5113739;28;20027;-74
2022/11/09 07:56:59;;;;;;;14.97;11.43;;;;;;;6.47;100.00;100654.75;5112643;28;20463;-74
2022/11/09 07:59:24;;;;;;;15.45;11.13;;;;;;;6.43;100.00;100648.06;5113871;28;20027;-74
2022/11/09 08:01:50;;;;;;;15.33;10.20;;;;;;;6.50;100.00;100654.47;5113624;28;20459;-74
2022/11/09 08:04:19;;;;;;;13.23;9.53;;;;;;;6.47;100.00;100649.44;5113714;28;20023;-74
2022/11/09 08:06:50;;;;;;;11.93;8.85;;;;;;;6.49;100.00;100650.13;5114241;28;20027;-73
2022/11/09 08:09:15;;;;;;;13.87;9.60;;;;;;;6.44;100.00;100649.72;5113836;28;20527;-76
2022/11/09 08:11:41;;;;;;;14.13;9.70;;;;;;;6.47;100.00;100646.81;5112892;28;20114;-72
2022/11/09 08:14:12;;;;;;;13.30;9.63;;;;;;;6.53;100.00;100654.19;5117417;28;20108;-75
2022/11/09 08:16:38;;;;;;;;;;;;;;;6.56;100.00;100642.47;5120848;28;20024;-77
2022/11/09 08:19:04;;;;;;;13.17;9.87;;;;;;;6.43;100.00;100628.72;5123513;28;19914;-75
2022/11/09 08:21:30;;;;;;;15.57;10.57;;;;;;;6.50;100.00;100648.34;5106550;28;20042;-74
2022/11/09 08:23:56;;;;;;;15.20;10.97;;;;;;;6.53;100.00;100637.47;5107374;28;20630;-76
2022/11/09 08:26:22;;;;;;;16.30;11.40;;;;;;;6.51;100.00;100624.38;5120760;28;20123;-73
2022/11/09 08:28:56;;;;;;;13.90;10.43;;;;;;;6.55;100.00;100646.09;5118073;28;20051;-75
2022/11/09 08:31:22;;;;;;;14.90;9.40;;;;;;;6.47;100.00;100628.28;5124024;28;20045;-74
2022/11/09 08:33:47;;;;;;;15.53;10.63;;;;;;;6.50;100.00;100627.16;5122521;28;20530;-73
2022/11/09 08:36:15;;;;;;;13.03;9.67;;;;;;;6.61;100.00;100634.94;5120193;28;20027;-75
2022/11/09 08:38:42;;;;;;;14.48;10.02;;;;;;;6.67;100.00;100628.28;5122217;28;20045;-74
2022/11/09 08:41:09;;;;;;;11.43;8.80;;;;;;;6.59;100.00;100612.25;5120430;28;20023;-72
2022/11/09 08:43:39;;;;;;;11.83;9.07;;;;;;;6.58;100.00;100615.88;5102900;28;20051;-75
2022/11/09 08:46:08;;;;;;;15.63;9.33;;;;;;;6.58;100.00;100624.66;5115442;28;20036;-75
2022/11/09 08:48:35;;;;;;;;;;;;;;;6.67;100.00;100617.69;5112666;28;20083;-75
2022/11/09 08:51:00;;;;;;;13.23;9.33;;;;;;;6.62;100.00;100620.75;5112055;28;19966;-74
2022/11/09 08:53:28;;;;;;;17.97;9.33;;;;;;;6.53;100.00;100617.13;5112756;28;20016;-74
2022/11/09 08:55:53;;;;;;;15.60;9.13;;;;;;;6.58;100.00;100618.53;5112536;28;20026;-74
2022/11/09 08:58:20;;;;;;;12.63;9.60;;;;;;;6.61;100.00;100612.94;5112648;28;20032;-75
2022/11/09 09:00:45;;;;;;;21.00;13.57;;;;;;;6.59;100.00;100607.78;5113276;28;20028;-76
2022/11/09 09:03:11;;;;;;;14.80;10.93;;;;;;;6.59;100.00;100602.50;5113523;28;20024;-76
2022/11/09 09:05:37;;;;;;;17.03;11.30;;;;;;;6.55;100.00;100614.34;5113704;28;20023;-75
2022/11/09 09:08:04;;;;;;;15.03;10.90;;;;;;;6.68;100.00;100627.31;5113212;28;20072;-73
2022/11/09 09:10:31;;;;;;;19.17;11.27;;;;;;;6.81;100.00;100625.19;5113572;28;20470;-73
2022/11/09 09:12:57;;;;;;;18.53;11.47;;;;;;;6.80;100.00;100612.94;5112900;28;20044;-76
2022/11/09 09:15:23;;;;;;;21.73;12.17;;;;;;;6.67;100.00;100580.66;5113423;28;20068;-73
2022/11/09 09:17:49;;;;;;;22.13;12.70;;;;;;;6.91;100.00;100617.22;5113816;28;20115;-73
2022/11/09 09:20:16;;;;;;;18.57;12.43;;;;;;;6.90;100.00;100605.78;5115889;28;20478;-75
2022/11/09 09:22:41;;;;;;;18.97;12.47;;;;;;;6.91;100.00;100607.47;5117618;28;20031;-77
2022/11/09 09:25:08;;;;;;;21.17;12.77;;;;;;;6.93;100.00;100613.44;5116295;28;20054;-76
2022/11/09 09:27:33;;;;;;;20.27;12.40;;;;;;;6.93;100.00;100613.44;5117662;28;20034;-73
2022/11/09 09:29:59;;;;;;;21.83;13.67;;;;;;;6.97;100.00;100617.50;5121727;28;20031;-76
2022/11/09 09:32:25;;;;;;;20.30;13.40;;;;;;;6.89;100.00;100587.41;5116270;28;20455;-73
2022/11/09 09:34:51;;;;;;;24.40;13.10;;;;;;;6.98;100.00;100592.69;5113684;28;20073;-74
2022/11/09 09:37:17;;;;;;;23.77;13.13;;;;;;;6.94;100.00;100593.97;5113319;28;20325;-72
2022/11/09 09:39:43;;;;;;;22.03;13.70;;;;;;;7.02;100.00;100601.19;5113773;28;20015;-76
2022/11/09 09:42:17;;;;;;;24.93;16.13;;;;;;;7.03;100.00;100598.41;5116226;28;20091;-76
2022/11/09 09:44:53;;;;;;;20.57;14.87;;;;;;;7.06;100.00;100597.28;5113009;28;20055;-79
2022/11/09 09:47:27;;;;;;;27.00;15.80;;;;;;;7.17;100.00;100596.25;5116853;28;20078;-74
2022/11/09 09:50:03;;;;;;;32.37;15.33;;;;;;;7.23;100.00;100599.19;5115496;28;20388;-77
2022/11/09 09:52:53;;;;;;;28.70;16.90;;;;;;;7.28;100.00;100596.94;5118431;28;20048;-75
2022/11/09 09:55:25;;;;;;;22.90;15.33;;;;;;;7.31;100.00;100595.78;5116881;28;20416;-75
2022/11/09 09:57:54;;;;;;;26.73;16.20;;;;;;;7.26;100.00;100595.41;5098641;28;20031;-75
2022/11/09 10:00:23;;;;;;;31.27;18.20;;;;;;;7.28;100.00;100588.16;5115579;28;20089;-75
2022/11/09 10:02:50;;;;;;;24.20;16.83;;;;;;;7.32;100.00;100586.88;5115691;28;20497;-74
2022/11/09 10:05:18;;;;;;;37.50;20.70;;;;;;;7.45;100.00;100598.78;5117204;28;20367;-76
2022/11/09 10:08:33;;;;;;;44.67;20.80;;;;;;;7.56;100.00;100591.66;5116679;28;20023;-76
2022/11/09 10:11:36;;;;;;;48.20;21.00;;;;;;;7.56;100.00;100589.00;5118088;28;20036;-76
2022/11/09 10:14:16;;;;;;;27.60;17.47;;;;;;;7.56;100.00;100583.69;5120113;28;20038;-75
2022/11/09 10:17:08;;;;;;;39.93;19.77;;;;;;;7.57;100.00;100583.56;5119925;28;20047;-74
2022/11/09 10:19:49;;;;;;;30.60;17.90;;;;;;;7.59;100.00;100594.84;5118795;28;20038;-73
2022/11/09 10:22:47;;;;;;;33.30;17.80;;;;;;;7.67;100.00;100592.28;5117846;28;20019;-77
2022/11/09 10:25:22;;;;;;;47.03;22.57;;;;;;;7.77;100.00;100587.75;5115670;28;20126;-76
2022/11/09 10:31:22;;;;;;;33.97;19.63;;;;;;;7.90;100.00;100592.69;5112200;28;20032;-76
2022/11/09 10:33:56;;;;;;;39.03;21.20;;;;;;;7.95;100.00;100594.91;5115794;28;20047;-76
2022/11/09 10:36:55;;;;;;;34.77;18.67;;;;;;;8.03;100.00;100594.97;5116737;28;20028;-78
2022/11/09 10:39:25;;;;;;;40.93;21.87;;;;;;;8.06;100.00;100586.72;5116085;28;20058;-73
2022/11/09 10:41:51;;;;;;;30.67;20.07;;;;;;;8.08;100.00;100590.03;5115934;28;20031;-79
2022/11/09 10:44:18;;;;;;;33.80;20.07;;;;;;;8.14;100.00;100589.47;5116367;28;20505;-76
2022/11/09 10:47:07;;;;;;;31.67;19.53;;;;;;;8.20;100.00;100594.16;5116792;28;20027;-76
2022/11/09 10:49:33;;;;;;;34.27;19.23;;;;;;;8.25;100.00;100599.00;5116337;28;20046;-76
2022/11/09 10:52:00;;;;;;;32.27;20.20;;;;;;;8.30;100.00;100588.78;5114212;28;20039;-76
2022/11/09 10:54:33;;;;;;;45.37;23.67;;;;;;;8.37;100.00;100596.00;5115361;27;20031;-75
2022/11/09 10:57:16;;;;;;;46.80;24.57;;;;;;;8.42;100.00;100592.06;5114672;27;20035;-76
2022/11/09 10:59:50;;;;;;;49.47;24.90;;;;;;;8.44;100.00;100603.38;5116428;28;20019;-75
2022/11/09 11:02:25;;;;;;;42.43;22.33;;;;;;;8.46;100.00;100598.75;5116549;28;20114;-75
2022/11/09 11:05:16;;;;;;;45.73;22.53;;;;;;;8.51;100.00;100601.78;5116427;28;20536;-75
2022/11/09 11:07:42;;;;;;;38.80;23.57;;;;;;;8.52;100.00;100598.13;5104095;28;20108;-76
2022/11/09 11:10:16;;;;;;;30.70;16.60;;;;;;;8.50;100.00;100590.31;5115347;28;20027;-78
2022/11/09 11:12:55;;;;;;;26.97;13.37;;;;;;;8.68;100.00;100604.41;5115232;28;20035;-76
2022/11/09 11:15:27;;;;;;;22.67;11.70;;;;;;;8.81;100.00;100600.50;5115527;28;20024;-76
2022/11/09 11:18:04;;;;;;;20.53;11.50;;;;;;;8.86;100.00;100601.72;5115149;28;20024;-77
2022/11/09 11:20:35;;;;;;;19.93;9.83;;;;;;;8.92;100.00;100606.38;5115468;28;20035;-77
2022/11/09 11:23:13;;;;;;;20.77;10.70;;;;;;;8.98;100.00;100605.78;5114502;28;20374;-80
2022/11/09 11:25:56;;;;;;;15.73;10.17;;;;;;;9.06;100.00;100602.34;5114048;28;20140;-80
2022/11/09 11:28:34;;;;;;;20.43;11.77;;;;;;;9.09;100.00;100604.69;5115510;28;20257;-79
2022/11/09 11:31:01;;;;;;;15.13;10.15;;;;;;;9.12;100.00;100599.06;5115549;27;20127;-74
2022/11/09 11:33:28;;;;;;;18.20;10.37;;;;;;;9.19;100.00;100607.22;5116946;28;20050;-73
2022/11/09 11:36:01;;;;;;;16.87;10.53;;;;;;;9.18;100.00;100594.94;5119774;28;20026;-78